sensor_id;sensor_type;location;lat;lon;timestamp;P1;durP1;ratioP1;P2;durP2;ratioP2
54167;SDS011;68429;50.958;3.592;2023-06-22T00:00:56;2.50;;;2.30;;
54167;SDS011;68429;50.958;3.592;2023-06-22T00:03:23;9.55;;;2.47;;
54167;SDS011;68429;50.958;3.592;2023-06-22T00:05:50;8.52;;;2.53;;
54167;SDS011;68429;50.958;3.592;2023-06-22T00:08:16;3.10;;;2.72;;
54167;SDS011;68429;50.958;3.592;2023-06-22T00:10:43;2.33;;;2.10;;
54167;SDS011;68429;50.958;3.592;2023-06-22T00:13:09;2.50;;;2.20;;
54167;SDS011;68429;50.958;3.592;2023-06-22T00:15:36;10.15;;;2.53;;
54167;SDS011;68429;50.958;3.592;2023-06-22T00:18:03;3.45;;;3.00;;
54167;SDS011;68429;50.958;3.592;2023-06-22T00:20:30;5.93;;;3.83;;
54167;SDS011;68429;50.958;3.592;2023-06-22T00:22:56;4.30;;;2.90;;
54167;SDS011;68429;50.958;3.592;2023-06-22T00:25:22;3.85;;;2.90;;
54167;SDS011;68429;50.958;3.592;2023-06-22T00:27:49;6.72;;;3.28;;
54167;SDS011;68429;50.958;3.592;2023-06-22T00:30:18;4.47;;;2.83;;
54167;SDS011;68429;50.958;3.592;2023-06-22T00:32:44;5.97;;;2.97;;
54167;SDS011;68429;50.958;3.592;2023-06-22T00:35:13;3.63;;;3.00;;
54167;SDS011;68429;50.958;3.592;2023-06-22T00:37:39;4.80;;;3.20;;
54167;SDS011;68429;50.958;3.592;2023-06-22T00:40:07;4.97;;;3.55;;
54167;SDS011;68429;50.958;3.592;2023-06-22T00:42:40;6.28;;;3.40;;
54167;SDS011;68429;50.958;3.592;2023-06-22T00:45:06;6.45;;;3.70;;
54167;SDS011;68429;50.958;3.592;2023-06-22T00:47:35;3.03;;;2.80;;
54167;SDS011;68429;50.958;3.592;2023-06-22T00:50:02;7.93;;;3.33;;
54167;SDS011;68429;50.958;3.592;2023-06-22T00:52:28;7.82;;;3.30;;
54167;SDS011;68429;50.958;3.592;2023-06-22T00:54:56;7.38;;;3.42;;
54167;SDS011;68429;50.958;3.592;2023-06-22T00:57:22;11.23;;;3.97;;
54167;SDS011;68429;50.958;3.592;2023-06-22T00:59:53;6.63;;;3.33;;
54167;SDS011;68429;50.958;3.592;2023-06-22T01:02:19;4.35;;;3.30;;
54167;SDS011;68429;50.958;3.592;2023-06-22T01:04:44;7.05;;;4.47;;
54167;SDS011;68429;50.958;3.592;2023-06-22T01:07:13;7.88;;;3.95;;
54167;SDS011;68429;50.958;3.592;2023-06-22T01:10:05;7.13;;;4.07;;
54167;SDS011;68429;50.958;3.592;2023-06-22T01:12:38;6.07;;;3.60;;
54167;SDS011;68429;50.958;3.592;2023-06-22T01:15:13;4.18;;;3.40;;
54167;SDS011;68429;50.958;3.592;2023-06-22T01:17:45;5.50;;;3.17;;
54167;SDS011;68429;50.958;3.592;2023-06-22T01:20:13;7.25;;;3.67;;
54167;SDS011;68429;50.958;3.592;2023-06-22T01:22:46;5.03;;;3.50;;
54167;SDS011;68429;50.958;3.592;2023-06-22T01:25:28;8.55;;;3.30;;
54167;SDS011;68429;50.958;3.592;2023-06-22T01:30:30;5.70;;;3.42;;
54167;SDS011;68429;50.958;3.592;2023-06-22T01:32:59;4.50;;;3.78;;
54167;SDS011;68429;50.958;3.592;2023-06-22T01:35:27;8.10;;;4.20;;
54167;SDS011;68429;50.958;3.592;2023-06-22T01:37:54;5.47;;;3.55;;
54167;SDS011;68429;50.958;3.592;2023-06-22T01:40:20;8.25;;;3.50;;
54167;SDS011;68429;50.958;3.592;2023-06-22T01:42:47;5.78;;;3.75;;
54167;SDS011;68429;50.958;3.592;2023-06-22T01:45:13;8.07;;;3.92;;
54167;SDS011;68429;50.958;3.592;2023-06-22T01:47:40;6.13;;;3.95;;
54167;SDS011;68429;50.958;3.592;2023-06-22T01:50:06;9.57;;;4.05;;
54167;SDS011;68429;50.958;3.592;2023-06-22T01:52:33;8.18;;;4.10;;
54167;SDS011;68429;50.958;3.592;2023-06-22T01:54:59;4.25;;;3.17;;
54167;SDS011;68429;50.958;3.592;2023-06-22T01:57:25;5.43;;;3.45;;
54167;SDS011;68429;50.958;3.592;2023-06-22T02:00:02;7.22;;;3.78;;
54167;SDS011;68429;50.958;3.592;2023-06-22T02:02:39;4.85;;;3.55;;
54167;SDS011;68429;50.958;3.592;2023-06-22T02:05:17;5.20;;;3.70;;
54167;SDS011;68429;50.958;3.592;2023-06-22T02:07:46;7.07;;;3.88;;
54167;SDS011;68429;50.958;3.592;2023-06-22T02:10:21;5.93;;;3.95;;
54167;SDS011;68429;50.958;3.592;2023-06-22T02:12:48;4.93;;;3.60;;
54167;SDS011;68429;50.958;3.592;2023-06-22T02:15:15;7.28;;;4.43;;
54167;SDS011;68429;50.958;3.592;2023-06-22T02:17:42;8.63;;;4.10;;
54167;SDS011;68429;50.958;3.592;2023-06-22T02:20:13;7.93;;;4.70;;
54167;SDS011;68429;50.958;3.592;2023-06-22T02:22:40;9.10;;;4.55;;
54167;SDS011;68429;50.958;3.592;2023-06-22T02:25:06;10.27;;;4.22;;
54167;SDS011;68429;50.958;3.592;2023-06-22T02:27:32;6.85;;;4.65;;
54167;SDS011;68429;50.958;3.592;2023-06-22T02:29:57;5.53;;;4.30;;
54167;SDS011;68429;50.958;3.592;2023-06-22T02:32:23;7.53;;;4.57;;
54167;SDS011;68429;50.958;3.592;2023-06-22T02:34:49;9.98;;;4.65;;
54167;SDS011;68429;50.958;3.592;2023-06-22T02:37:14;5.78;;;4.80;;
54167;SDS011;68429;50.958;3.592;2023-06-22T02:39:40;8.23;;;5.07;;
54167;SDS011;68429;50.958;3.592;2023-06-22T02:42:06;7.47;;;4.88;;
54167;SDS011;68429;50.958;3.592;2023-06-22T02:44:32;9.35;;;5.32;;
54167;SDS011;68429;50.958;3.592;2023-06-22T02:46:58;7.13;;;5.05;;
54167;SDS011;68429;50.958;3.592;2023-06-22T02:49:23;7.80;;;5.10;;
54167;SDS011;68429;50.958;3.592;2023-06-22T02:51:49;7.72;;;5.90;;
54167;SDS011;68429;50.958;3.592;2023-06-22T02:54:15;9.80;;;5.53;;
54167;SDS011;68429;50.958;3.592;2023-06-22T02:56:41;8.73;;;6.43;;
54167;SDS011;68429;50.958;3.592;2023-06-22T02:59:10;9.85;;;6.85;;
54167;SDS011;68429;50.958;3.592;2023-06-22T03:01:36;8.10;;;6.53;;
54167;SDS011;68429;50.958;3.592;2023-06-22T03:04:08;9.38;;;6.05;;
54167;SDS011;68429;50.958;3.592;2023-06-22T03:06:35;9.80;;;7.30;;
54167;SDS011;68429;50.958;3.592;2023-06-22T03:09:02;9.90;;;7.53;;
54167;SDS011;68429;50.958;3.592;2023-06-22T03:11:33;13.93;;;7.60;;
54167;SDS011;68429;50.958;3.592;2023-06-22T03:13:59;11.82;;;6.97;;
54167;SDS011;68429;50.958;3.592;2023-06-22T03:16:26;10.43;;;7.07;;
54167;SDS011;68429;50.958;3.592;2023-06-22T03:18:52;11.30;;;8.23;;
54167;SDS011;68429;50.958;3.592;2023-06-22T03:21:22;10.38;;;7.45;;
54167;SDS011;68429;50.958;3.592;2023-06-22T03:23:48;12.18;;;7.72;;
54167;SDS011;68429;50.958;3.592;2023-06-22T03:26:16;12.52;;;8.20;;
54167;SDS011;68429;50.958;3.592;2023-06-22T03:28:42;11.40;;;7.57;;
54167;SDS011;68429;50.958;3.592;2023-06-22T03:31:08;12.35;;;7.15;;
54167;SDS011;68429;50.958;3.592;2023-06-22T03:33:34;8.75;;;7.13;;
54167;SDS011;68429;50.958;3.592;2023-06-22T03:36:00;19.67;;;7.90;;
54167;SDS011;68429;50.958;3.592;2023-06-22T03:38:25;10.98;;;8.30;;
54167;SDS011;68429;50.958;3.592;2023-06-22T03:40:51;15.43;;;8.10;;
54167;SDS011;68429;50.958;3.592;2023-06-22T03:43:16;12.73;;;7.75;;
54167;SDS011;68429;50.958;3.592;2023-06-22T03:45:42;12.52;;;7.55;;
54167;SDS011;68429;50.958;3.592;2023-06-22T03:48:10;11.90;;;7.78;;
54167;SDS011;68429;50.958;3.592;2023-06-22T03:50:36;10.82;;;7.75;;
54167;SDS011;68429;50.958;3.592;2023-06-22T03:53:02;12.35;;;8.07;;
54167;SDS011;68429;50.958;3.592;2023-06-22T03:55:27;11.60;;;7.68;;
54167;SDS011;68429;50.958;3.592;2023-06-22T03:57:53;11.00;;;7.55;;
54167;SDS011;68429;50.958;3.592;2023-06-22T04:00:21;10.23;;;7.13;;
54167;SDS011;68429;50.958;3.592;2023-06-22T04:02:47;10.30;;;7.18;;
54167;SDS011;68429;50.958;3.592;2023-06-22T04:05:13;12.63;;;7.80;;
54167;SDS011;68429;50.958;3.592;2023-06-22T04:07:39;14.88;;;7.82;;
54167;SDS011;68429;50.958;3.592;2023-06-22T04:10:05;10.65;;;7.75;;
54167;SDS011;68429;50.958;3.592;2023-06-22T04:12:30;8.68;;;7.20;;
54167;SDS011;68429;50.958;3.592;2023-06-22T04:14:56;20.15;;;8.13;;
54167;SDS011;68429;50.958;3.592;2023-06-22T04:17:22;13.50;;;8.20;;
54167;SDS011;68429;50.958;3.592;2023-06-22T04:19:50;13.05;;;7.68;;
54167;SDS011;68429;50.958;3.592;2023-06-22T04:22:16;12.75;;;7.57;;
54167;SDS011;68429;50.958;3.592;2023-06-22T04:24:41;9.02;;;7.40;;
54167;SDS011;68429;50.958;3.592;2023-06-22T04:27:07;9.85;;;7.22;;
54167;SDS011;68429;50.958;3.592;2023-06-22T04:29:33;11.68;;;7.88;;
54167;SDS011;68429;50.958;3.592;2023-06-22T04:31:59;9.10;;;7.43;;
54167;SDS011;68429;50.958;3.592;2023-06-22T04:34:28;9.93;;;7.72;;
54167;SDS011;68429;50.958;3.592;2023-06-22T04:36:54;9.40;;;7.65;;
54167;SDS011;68429;50.958;3.592;2023-06-22T04:39:20;11.65;;;8.45;;
54167;SDS011;68429;50.958;3.592;2023-06-22T04:41:46;9.55;;;8.30;;
54167;SDS011;68429;50.958;3.592;2023-06-22T04:44:12;11.98;;;8.38;;
54167;SDS011;68429;50.958;3.592;2023-06-22T04:46:56;11.45;;;8.15;;
54167;SDS011;68429;50.958;3.592;2023-06-22T04:49:25;10.20;;;7.90;;
54167;SDS011;68429;50.958;3.592;2023-06-22T04:51:57;10.18;;;7.75;;
54167;SDS011;68429;50.958;3.592;2023-06-22T04:54:27;12.23;;;8.23;;
54167;SDS011;68429;50.958;3.592;2023-06-22T04:56:53;12.48;;;7.80;;
54167;SDS011;68429;50.958;3.592;2023-06-22T04:59:25;14.43;;;8.65;;
54167;SDS011;68429;50.958;3.592;2023-06-22T05:01:58;10.55;;;7.72;;
54167;SDS011;68429;50.958;3.592;2023-06-22T05:04:26;13.77;;;8.70;;
54167;SDS011;68429;50.958;3.592;2023-06-22T05:06:53;10.63;;;8.02;;
54167;SDS011;68429;50.958;3.592;2023-06-22T05:09:20;12.38;;;8.32;;
54167;SDS011;68429;50.958;3.592;2023-06-22T05:11:46;11.52;;;8.18;;
54167;SDS011;68429;50.958;3.592;2023-06-22T05:14:12;12.23;;;8.50;;
54167;SDS011;68429;50.958;3.592;2023-06-22T05:16:38;15.70;;;9.32;;
54167;SDS011;68429;50.958;3.592;2023-06-22T05:19:04;14.05;;;9.70;;
54167;SDS011;68429;50.958;3.592;2023-06-22T05:21:30;11.40;;;8.55;;
54167;SDS011;68429;50.958;3.592;2023-06-22T05:23:56;13.05;;;9.07;;
54167;SDS011;68429;50.958;3.592;2023-06-22T05:26:25;12.40;;;9.05;;
54167;SDS011;68429;50.958;3.592;2023-06-22T05:28:52;12.30;;;9.10;;
54167;SDS011;68429;50.958;3.592;2023-06-22T05:31:18;12.77;;;8.02;;
54167;SDS011;68429;50.958;3.592;2023-06-22T05:33:47;16.05;;;9.18;;
54167;SDS011;68429;50.958;3.592;2023-06-22T05:36:14;15.63;;;9.23;;
54167;SDS011;68429;50.958;3.592;2023-06-22T05:38:40;12.35;;;8.95;;
54167;SDS011;68429;50.958;3.592;2023-06-22T05:41:06;13.68;;;9.30;;
54167;SDS011;68429;50.958;3.592;2023-06-22T05:43:33;13.45;;;8.63;;
54167;SDS011;68429;50.958;3.592;2023-06-22T05:46:03;12.85;;;8.55;;
54167;SDS011;68429;50.958;3.592;2023-06-22T05:48:29;11.20;;;8.57;;
54167;SDS011;68429;50.958;3.592;2023-06-22T05:50:55;10.95;;;8.13;;
54167;SDS011;68429;50.958;3.592;2023-06-22T05:53:21;11.88;;;9.10;;
54167;SDS011;68429;50.958;3.592;2023-06-22T05:55:47;10.85;;;8.02;;
54167;SDS011;68429;50.958;3.592;2023-06-22T05:58:13;16.08;;;8.88;;
54167;SDS011;68429;50.958;3.592;2023-06-22T06:00:39;12.73;;;8.88;;
54167;SDS011;68429;50.958;3.592;2023-06-22T06:03:06;13.45;;;8.15;;
54167;SDS011;68429;50.958;3.592;2023-06-22T06:05:32;15.18;;;8.85;;
54167;SDS011;68429;50.958;3.592;2023-06-22T06:07:59;10.27;;;8.00;;
54167;SDS011;68429;50.958;3.592;2023-06-22T06:10:26;10.77;;;8.93;;
54167;SDS011;68429;50.958;3.592;2023-06-22T06:12:54;15.20;;;8.63;;
54167;SDS011;68429;50.958;3.592;2023-06-22T06:15:20;18.13;;;9.18;;
54167;SDS011;68429;50.958;3.592;2023-06-22T06:17:52;19.52;;;9.00;;
54167;SDS011;68429;50.958;3.592;2023-06-22T06:20:19;11.57;;;8.88;;
54167;SDS011;68429;50.958;3.592;2023-06-22T06:22:46;11.23;;;9.23;;
54167;SDS011;68429;50.958;3.592;2023-06-22T06:25:12;12.55;;;9.18;;
54167;SDS011;68429;50.958;3.592;2023-06-22T06:27:44;14.00;;;9.10;;
54167;SDS011;68429;50.958;3.592;2023-06-22T06:30:14;12.85;;;8.45;;
54167;SDS011;68429;50.958;3.592;2023-06-22T06:32:41;16.45;;;10.55;;
54167;SDS011;68429;50.958;3.592;2023-06-22T06:35:09;18.65;;;9.40;;
54167;SDS011;68429;50.958;3.592;2023-06-22T06:37:36;13.77;;;9.40;;
54167;SDS011;68429;50.958;3.592;2023-06-22T06:40:05;15.68;;;10.38;;
54167;SDS011;68429;50.958;3.592;2023-06-22T06:42:38;21.52;;;10.60;;
54167;SDS011;68429;50.958;3.592;2023-06-22T06:45:07;18.10;;;10.82;;
54167;SDS011;68429;50.958;3.592;2023-06-22T06:47:33;15.65;;;10.43;;
54167;SDS011;68429;50.958;3.592;2023-06-22T06:49:59;18.08;;;10.77;;
54167;SDS011;68429;50.958;3.592;2023-06-22T06:52:25;15.13;;;11.32;;
54167;SDS011;68429;50.958;3.592;2023-06-22T06:54:51;14.25;;;10.50;;
54167;SDS011;68429;50.958;3.592;2023-06-22T06:57:17;15.45;;;11.02;;
54167;SDS011;68429;50.958;3.592;2023-06-22T06:59:43;19.20;;;10.43;;
54167;SDS011;68429;50.958;3.592;2023-06-22T07:02:09;17.40;;;10.38;;
54167;SDS011;68429;50.958;3.592;2023-06-22T07:04:35;15.73;;;11.00;;
54167;SDS011;68429;50.958;3.592;2023-06-22T07:07:01;18.75;;;11.00;;
54167;SDS011;68429;50.958;3.592;2023-06-22T07:09:28;17.15;;;10.02;;
54167;SDS011;68429;50.958;3.592;2023-06-22T07:11:53;16.60;;;11.07;;
54167;SDS011;68429;50.958;3.592;2023-06-22T07:14:19;12.80;;;10.63;;
54167;SDS011;68429;50.958;3.592;2023-06-22T07:16:45;13.98;;;10.75;;
54167;SDS011;68429;50.958;3.592;2023-06-22T07:19:13;25.17;;;10.50;;
54167;SDS011;68429;50.958;3.592;2023-06-22T07:21:39;15.75;;;10.05;;
54167;SDS011;68429;50.958;3.592;2023-06-22T07:24:05;23.50;;;10.30;;
54167;SDS011;68429;50.958;3.592;2023-06-22T07:26:31;14.32;;;9.98;;
54167;SDS011;68429;50.958;3.592;2023-06-22T07:28:58;16.65;;;11.10;;
54167;SDS011;68429;50.958;3.592;2023-06-22T07:31:24;19.50;;;11.70;;
54167;SDS011;68429;50.958;3.592;2023-06-22T07:33:50;16.40;;;11.05;;
54167;SDS011;68429;50.958;3.592;2023-06-22T07:36:16;19.00;;;11.13;;
54167;SDS011;68429;50.958;3.592;2023-06-22T07:38:42;13.43;;;10.95;;
54167;SDS011;68429;50.958;3.592;2023-06-22T07:41:08;15.52;;;10.55;;
54167;SDS011;68429;50.958;3.592;2023-06-22T07:43:33;16.98;;;10.43;;
54167;SDS011;68429;50.958;3.592;2023-06-22T07:46:02;16.13;;;11.50;;
54167;SDS011;68429;50.958;3.592;2023-06-22T07:48:28;18.65;;;10.02;;
54167;SDS011;68429;50.958;3.592;2023-06-22T07:50:54;15.93;;;10.48;;
54167;SDS011;68429;50.958;3.592;2023-06-22T07:53:20;16.80;;;11.18;;
54167;SDS011;68429;50.958;3.592;2023-06-22T07:55:47;15.73;;;10.75;;
54167;SDS011;68429;50.958;3.592;2023-06-22T07:58:13;13.32;;;9.82;;
54167;SDS011;68429;50.958;3.592;2023-06-22T08:00:38;19.77;;;10.90;;
54167;SDS011;68429;50.958;3.592;2023-06-22T08:03:04;20.38;;;10.70;;
54167;SDS011;68429;50.958;3.592;2023-06-22T08:05:30;17.70;;;9.98;;
54167;SDS011;68429;50.958;3.592;2023-06-22T08:07:56;15.80;;;10.80;;
54167;SDS011;68429;50.958;3.592;2023-06-22T08:10:22;14.68;;;11.00;;
54167;SDS011;68429;50.958;3.592;2023-06-22T08:12:47;16.40;;;11.27;;
54167;SDS011;68429;50.958;3.592;2023-06-22T08:15:13;15.20;;;10.13;;
54167;SDS011;68429;50.958;3.592;2023-06-22T08:17:39;19.58;;;11.18;;
54167;SDS011;68429;50.958;3.592;2023-06-22T08:20:05;20.40;;;11.32;;
54167;SDS011;68429;50.958;3.592;2023-06-22T08:22:36;18.27;;;11.02;;
54167;SDS011;68429;50.958;3.592;2023-06-22T08:25:02;18.77;;;11.63;;
54167;SDS011;68429;50.958;3.592;2023-06-22T08:27:29;17.92;;;11.25;;
54167;SDS011;68429;50.958;3.592;2023-06-22T08:29:57;21.65;;;11.98;;
54167;SDS011;68429;50.958;3.592;2023-06-22T08:32:24;27.50;;;11.55;;
54167;SDS011;68429;50.958;3.592;2023-06-22T08:34:52;19.10;;;12.48;;
54167;SDS011;68429;50.958;3.592;2023-06-22T08:37:21;23.98;;;11.88;;
54167;SDS011;68429;50.958;3.592;2023-06-22T08:39:59;17.65;;;11.60;;
54167;SDS011;68429;50.958;3.592;2023-06-22T08:42:26;19.40;;;12.60;;
54167;SDS011;68429;50.958;3.592;2023-06-22T08:44:52;26.75;;;12.68;;
54167;SDS011;68429;50.958;3.592;2023-06-22T08:47:18;21.25;;;12.60;;
54167;SDS011;68429;50.958;3.592;2023-06-22T08:49:45;21.42;;;13.73;;
54167;SDS011;68429;50.958;3.592;2023-06-22T08:52:10;19.85;;;12.88;;
54167;SDS011;68429;50.958;3.592;2023-06-22T08:54:36;22.27;;;14.90;;
54167;SDS011;68429;50.958;3.592;2023-06-22T08:57:02;22.10;;;12.77;;
54167;SDS011;68429;50.958;3.592;2023-06-22T08:59:27;20.05;;;13.43;;
54167;SDS011;68429;50.958;3.592;2023-06-22T09:01:53;17.58;;;14.02;;
54167;SDS011;68429;50.958;3.592;2023-06-22T09:04:19;17.42;;;12.82;;
54167;SDS011;68429;50.958;3.592;2023-06-22T09:06:47;18.92;;;13.25;;
54167;SDS011;68429;50.958;3.592;2023-06-22T09:09:13;18.25;;;12.80;;
54167;SDS011;68429;50.958;3.592;2023-06-22T09:11:39;17.50;;;13.43;;
54167;SDS011;68429;50.958;3.592;2023-06-22T09:14:05;25.27;;;12.48;;
54167;SDS011;68429;50.958;3.592;2023-06-22T09:16:31;16.08;;;11.93;;
54167;SDS011;68429;50.958;3.592;2023-06-22T09:18:57;17.38;;;11.90;;
54167;SDS011;68429;50.958;3.592;2023-06-22T09:21:23;18.25;;;12.88;;
54167;SDS011;68429;50.958;3.592;2023-06-22T09:23:49;20.55;;;11.55;;
54167;SDS011;68429;50.958;3.592;2023-06-22T09:26:17;17.05;;;11.70;;
54167;SDS011;68429;50.958;3.592;2023-06-22T09:28:43;16.00;;;11.73;;
54167;SDS011;68429;50.958;3.592;2023-06-22T09:31:09;18.02;;;12.48;;
54167;SDS011;68429;50.958;3.592;2023-06-22T09:39:32;19.10;;;11.88;;
54167;SDS011;68429;50.958;3.592;2023-06-22T09:41:59;18.90;;;12.60;;
54167;SDS011;68429;50.958;3.592;2023-06-22T09:44:25;18.42;;;12.63;;
54167;SDS011;68429;50.958;3.592;2023-06-22T09:46:51;20.40;;;13.10;;
54167;SDS011;68429;50.958;3.592;2023-06-22T09:49:16;17.83;;;13.27;;
54167;SDS011;68429;50.958;3.592;2023-06-22T09:51:42;14.38;;;12.38;;
54167;SDS011;68429;50.958;3.592;2023-06-22T09:54:08;19.13;;;13.80;;
54167;SDS011;68429;50.958;3.592;2023-06-22T09:56:34;17.95;;;12.77;;
54167;SDS011;68429;50.958;3.592;2023-06-22T09:58:59;21.25;;;13.38;;
54167;SDS011;68429;50.958;3.592;2023-06-22T10:01:25;16.15;;;12.63;;
54167;SDS011;68429;50.958;3.592;2023-06-22T10:03:55;19.70;;;13.18;;
54167;SDS011;68429;50.958;3.592;2023-06-22T10:06:21;16.02;;;12.63;;
54167;SDS011;68429;50.958;3.592;2023-06-22T10:08:47;15.43;;;13.27;;
54167;SDS011;68429;50.958;3.592;2023-06-22T10:11:14;18.20;;;14.68;;
54167;SDS011;68429;50.958;3.592;2023-06-22T10:13:40;19.63;;;14.77;;
54167;SDS011;68429;50.958;3.592;2023-06-22T10:16:06;18.75;;;14.80;;
54167;SDS011;68429;50.958;3.592;2023-06-22T10:18:32;17.77;;;15.02;;
54167;SDS011;68429;50.958;3.592;2023-06-22T10:20:58;21.27;;;14.63;;
54167;SDS011;68429;50.958;3.592;2023-06-22T10:23:23;19.50;;;14.50;;
54167;SDS011;68429;50.958;3.592;2023-06-22T10:25:49;25.35;;;15.98;;
54167;SDS011;68429;50.958;3.592;2023-06-22T10:28:15;20.45;;;14.13;;
54167;SDS011;68429;50.958;3.592;2023-06-22T10:30:41;13.13;;;10.35;;
54167;SDS011;68429;50.958;3.592;2023-06-22T10:33:10;15.80;;;10.60;;
54167;SDS011;68429;50.958;3.592;2023-06-22T10:35:37;13.45;;;10.35;;
54167;SDS011;68429;50.958;3.592;2023-06-22T10:38:03;13.57;;;11.20;;
54167;SDS011;68429;50.958;3.592;2023-06-22T10:40:29;15.32;;;10.40;;
54167;SDS011;68429;50.958;3.592;2023-06-22T10:42:55;18.95;;;9.80;;
54167;SDS011;68429;50.958;3.592;2023-06-22T10:45:20;22.17;;;11.65;;
54167;SDS011;68429;50.958;3.592;2023-06-22T10:47:46;19.15;;;9.30;;
54167;SDS011;68429;50.958;3.592;2023-06-22T10:50:12;11.25;;;8.30;;
54167;SDS011;68429;50.958;3.592;2023-06-22T10:52:38;10.85;;;7.07;;
54167;SDS011;68429;50.958;3.592;2023-06-22T10:55:04;12.73;;;7.78;;
54167;SDS011;68429;50.958;3.592;2023-06-22T10:57:30;10.25;;;7.38;;
54167;SDS011;68429;50.958;3.592;2023-06-22T10:59:56;13.77;;;7.78;;
54167;SDS011;68429;50.958;3.592;2023-06-22T11:02:21;12.50;;;7.45;;
54167;SDS011;68429;50.958;3.592;2023-06-22T11:04:47;11.90;;;7.78;;
54167;SDS011;68429;50.958;3.592;2023-06-22T11:07:13;25.60;;;9.63;;
54167;SDS011;68429;50.958;3.592;2023-06-22T11:09:38;17.10;;;9.40;;
54167;SDS011;68429;50.958;3.592;2023-06-22T11:12:05;20.85;;;9.77;;
54167;SDS011;68429;50.958;3.592;2023-06-22T11:14:31;18.73;;;10.35;;
54167;SDS011;68429;50.958;3.592;2023-06-22T11:16:58;18.77;;;9.15;;
54167;SDS011;68429;50.958;3.592;2023-06-22T11:19:24;19.90;;;8.88;;
54167;SDS011;68429;50.958;3.592;2023-06-22T11:21:50;17.98;;;9.27;;
54167;SDS011;68429;50.958;3.592;2023-06-22T11:24:16;15.82;;;8.65;;
54167;SDS011;68429;50.958;3.592;2023-06-22T11:26:42;12.15;;;9.80;;
54167;SDS011;68429;50.958;3.592;2023-06-22T11:29:08;13.48;;;9.38;;
54167;SDS011;68429;50.958;3.592;2023-06-22T11:31:34;14.07;;;10.32;;
54167;SDS011;68429;50.958;3.592;2023-06-22T11:34:00;14.40;;;10.55;;
54167;SDS011;68429;50.958;3.592;2023-06-22T11:36:26;17.42;;;10.15;;
54167;SDS011;68429;50.958;3.592;2023-06-22T11:38:54;13.05;;;10.25;;
54167;SDS011;68429;50.958;3.592;2023-06-22T11:41:19;13.23;;;10.57;;
54167;SDS011;68429;50.958;3.592;2023-06-22T11:43:45;15.85;;;10.50;;
54167;SDS011;68429;50.958;3.592;2023-06-22T11:46:11;16.30;;;10.32;;
54167;SDS011;68429;50.958;3.592;2023-06-22T11:48:36;12.75;;;9.75;;
54167;SDS011;68429;50.958;3.592;2023-06-22T11:51:02;13.65;;;9.70;;
54167;SDS011;68429;50.958;3.592;2023-06-22T11:53:28;13.30;;;9.98;;
54167;SDS011;68429;50.958;3.592;2023-06-22T11:55:54;12.35;;;9.48;;
54167;SDS011;68429;50.958;3.592;2023-06-22T11:58:21;15.43;;;10.75;;
54167;SDS011;68429;50.958;3.592;2023-06-22T12:00:47;17.52;;;11.30;;
54167;SDS011;68429;50.958;3.592;2023-06-22T12:03:13;17.17;;;11.13;;
54167;SDS011;68429;50.958;3.592;2023-06-22T12:05:39;16.42;;;11.13;;
54167;SDS011;68429;50.958;3.592;2023-06-22T12:08:06;18.33;;;10.80;;
54167;SDS011;68429;50.958;3.592;2023-06-22T12:10:31;10.98;;;9.18;;
54167;SDS011;68429;50.958;3.592;2023-06-22T12:12:57;13.93;;;8.65;;
54167;SDS011;68429;50.958;3.592;2023-06-22T12:15:24;12.88;;;8.50;;
54167;SDS011;68429;50.958;3.592;2023-06-22T12:17:51;13.38;;;8.10;;
54167;SDS011;68429;50.958;3.592;2023-06-22T12:20:16;11.65;;;6.88;;
54167;SDS011;68429;50.958;3.592;2023-06-22T12:22:43;11.07;;;6.45;;
54167;SDS011;68429;50.958;3.592;2023-06-22T12:25:09;10.88;;;6.65;;
54167;SDS011;68429;50.958;3.592;2023-06-22T12:27:35;11.98;;;7.10;;
54167;SDS011;68429;50.958;3.592;2023-06-22T12:30:01;13.32;;;6.60;;
54167;SDS011;68429;50.958;3.592;2023-06-22T12:32:27;12.80;;;6.97;;
54167;SDS011;68429;50.958;3.592;2023-06-22T12:34:53;10.70;;;7.10;;
54167;SDS011;68429;50.958;3.592;2023-06-22T12:37:20;16.70;;;7.00;;
54167;SDS011;68429;50.958;3.592;2023-06-22T12:39:46;13.40;;;7.80;;
54167;SDS011;68429;50.958;3.592;2023-06-22T12:42:11;12.73;;;7.45;;
54167;SDS011;68429;50.958;3.592;2023-06-22T12:44:38;11.27;;;7.07;;
54167;SDS011;68429;50.958;3.592;2023-06-22T12:47:04;11.00;;;7.82;;
54167;SDS011;68429;50.958;3.592;2023-06-22T12:49:30;12.32;;;7.22;;
54167;SDS011;68429;50.958;3.592;2023-06-22T12:51:56;12.65;;;7.63;;
54167;SDS011;68429;50.958;3.592;2023-06-22T12:54:22;11.15;;;7.22;;
54167;SDS011;68429;50.958;3.592;2023-06-22T12:56:49;14.70;;;8.90;;
54167;SDS011;68429;50.958;3.592;2023-06-22T12:59:15;9.50;;;7.97;;
54167;SDS011;68429;50.958;3.592;2023-06-22T13:01:42;12.85;;;9.13;;
54167;SDS011;68429;50.958;3.592;2023-06-22T13:04:10;15.50;;;8.75;;
54167;SDS011;68429;50.958;3.592;2023-06-22T13:06:39;13.20;;;8.73;;
54167;SDS011;68429;50.958;3.592;2023-06-22T13:09:05;11.68;;;8.52;;
54167;SDS011;68429;50.958;3.592;2023-06-22T13:11:31;12.07;;;9.98;;
54167;SDS011;68429;50.958;3.592;2023-06-22T13:13:57;12.93;;;10.55;;
54167;SDS011;68429;50.958;3.592;2023-06-22T13:16:22;15.13;;;10.07;;
54167;SDS011;68429;50.958;3.592;2023-06-22T13:18:48;17.00;;;10.10;;
54167;SDS011;68429;50.958;3.592;2023-06-22T13:21:14;16.38;;;10.50;;
54167;SDS011;68429;50.958;3.592;2023-06-22T13:23:40;10.98;;;9.02;;
54167;SDS011;68429;50.958;3.592;2023-06-22T13:26:05;13.95;;;9.15;;
54167;SDS011;68429;50.958;3.592;2023-06-22T13:28:32;12.00;;;9.50;;
54167;SDS011;68429;50.958;3.592;2023-06-22T13:30:58;12.60;;;9.38;;
54167;SDS011;68429;50.958;3.592;2023-06-22T13:33:24;10.13;;;8.05;;
54167;SDS011;68429;50.958;3.592;2023-06-22T13:35:49;13.48;;;9.45;;
54167;SDS011;68429;50.958;3.592;2023-06-22T13:38:15;11.07;;;9.10;;
54167;SDS011;68429;50.958;3.592;2023-06-22T13:40:42;9.85;;;8.55;;
54167;SDS011;68429;50.958;3.592;2023-06-22T13:43:08;13.13;;;8.30;;
54167;SDS011;68429;50.958;3.592;2023-06-22T13:45:34;13.70;;;8.48;;
54167;SDS011;68429;50.958;3.592;2023-06-22T13:48:00;9.23;;;8.23;;
54167;SDS011;68429;50.958;3.592;2023-06-22T13:50:26;10.52;;;8.55;;
54167;SDS011;68429;50.958;3.592;2023-06-22T13:52:51;14.00;;;7.75;;
54167;SDS011;68429;50.958;3.592;2023-06-22T13:55:17;11.85;;;8.50;;
54167;SDS011;68429;50.958;3.592;2023-06-22T13:57:44;10.48;;;8.50;;
54167;SDS011;68429;50.958;3.592;2023-06-22T14:00:10;10.45;;;7.53;;
54167;SDS011;68429;50.958;3.592;2023-06-22T14:02:39;10.32;;;8.13;;
54167;SDS011;68429;50.958;3.592;2023-06-22T14:05:06;10.07;;;8.38;;
54167;SDS011;68429;50.958;3.592;2023-06-22T14:07:32;12.18;;;7.35;;
54167;SDS011;68429;50.958;3.592;2023-06-22T14:09:59;10.85;;;7.68;;
54167;SDS011;68429;50.958;3.592;2023-06-22T14:12:25;11.77;;;9.77;;
54167;SDS011;68429;50.958;3.592;2023-06-22T14:14:51;12.20;;;9.15;;
54167;SDS011;68429;50.958;3.592;2023-06-22T14:17:17;13.50;;;9.65;;
54167;SDS011;68429;50.958;3.592;2023-06-22T14:19:48;16.55;;;10.57;;
54167;SDS011;68429;50.958;3.592;2023-06-22T14:22:14;14.18;;;10.18;;
54167;SDS011;68429;50.958;3.592;2023-06-22T14:24:40;13.52;;;10.82;;
54167;SDS011;68429;50.958;3.592;2023-06-22T14:27:06;18.00;;;13.50;;
54167;SDS011;68429;50.958;3.592;2023-06-22T14:29:33;18.10;;;13.70;;
54167;SDS011;68429;50.958;3.592;2023-06-22T14:31:59;21.15;;;15.35;;
54167;SDS011;68429;50.958;3.592;2023-06-22T14:34:25;22.50;;;16.42;;
54167;SDS011;68429;50.958;3.592;2023-06-22T14:36:51;21.63;;;16.85;;
54167;SDS011;68429;50.958;3.592;2023-06-22T14:39:16;25.85;;;17.63;;